SIA990 WAHI-WIBB
Flight info
| Callsign | SIA990 |
|---|---|
| Flight time | 1h 59m |
| Altitude | 40000 |
| Route | CLP W17 BND W11 CKG T10 OVSET |
| Aircraft | A359/H-SDE2E3GHIJ3J4J5LM1ORWXY/LB1D1 |
Departure
| Time | 2026-04-23 13:07 |
|---|---|
| Airport | Yogyakarta International Airport (WAHI) |
Arrival
| Time | 2026-04-23 15:06 |
|---|---|
| Airport | Sultan Syarif Kasim II International Airport / Roesmin Nurjadin AFB (WIBB) |
| Time | Latitude | Longitude | Altitude | Speed | Heading |
|---|---|---|---|---|---|
| 2026-04-23 12:38 | -7.90089 | 110.05790 | 99 ft | 0 kts | 21° |
| 2026-04-23 12:50 | -7.90108 | 110.05783 | 41 ft | 4 kts | 15° |
| 2026-04-23 12:51 | -7.90134 | 110.05778 | 41 ft | 4 kts | 5° |
| 2026-04-23 12:51 | -7.90161 | 110.05778 | 41 ft | 4 kts | 348° |
| 2026-04-23 12:51 | -7.90185 | 110.05788 | 40 ft | 4 kts | 311° |
| 2026-04-23 12:51 | -7.90192 | 110.05800 | 39 ft | 1 kts | 290° |
| 2026-04-23 12:52 | -7.90193 | 110.05801 | 39 ft | 0 kts | 290° |
| 2026-04-23 13:02 | -7.90192 | 110.05799 | 49 ft | 5 kts | 290° |
| 2026-04-23 13:02 | -7.90147 | 110.05675 | 49 ft | 23 kts | 290° |
| 2026-04-23 13:02 | -7.90088 | 110.05519 | 49 ft | 25 kts | 290° |
| 2026-04-23 13:02 | -7.90027 | 110.05354 | 49 ft | 26 kts | 291° |
| 2026-04-23 13:03 | -7.89978 | 110.05228 | 49 ft | 10 kts | 291° |
| 2026-04-23 13:03 | -7.89977 | 110.05162 | 49 ft | 8 kts | 230° |
| 2026-04-23 13:03 | -7.90035 | 110.05131 | 49 ft | 11 kts | 203° |
| 2026-04-23 13:03 | -7.90102 | 110.05087 | 47 ft | 12 kts | 241° |
| 2026-04-23 13:04 | -7.90089 | 110.05007 | 48 ft | 12 kts | 288° |
| 2026-04-23 13:04 | -7.90057 | 110.04921 | 49 ft | 14 kts | 290° |
| 2026-04-23 13:04 | -7.90021 | 110.04819 | 49 ft | 17 kts | 290° |
| 2026-04-23 13:04 | -7.89980 | 110.04705 | 49 ft | 18 kts | 290° |
| 2026-04-23 13:05 | -7.89935 | 110.04586 | 50 ft | 19 kts | 290° |
| 2026-04-23 13:05 | -7.89897 | 110.04460 | 48 ft | 12 kts | 261° |
| 2026-04-23 13:05 | -7.89941 | 110.04431 | 50 ft | 7 kts | 186° |
| 2026-04-23 13:05 | -7.89989 | 110.04436 | 52 ft | 7 kts | 161° |
| 2026-04-23 13:06 | -7.90083 | 110.04494 | 47 ft | 10 kts | 124° |
| 2026-04-23 13:06 | -7.90132 | 110.04624 | 49 ft | 51 kts | 110° |
| 2026-04-23 13:06 | -7.90378 | 110.05301 | 49 ft | 151 kts | 111° |
| 2026-04-23 13:07 | -7.90801 | 110.06494 | 580 ft | 197 kts | 110° |
| 2026-04-23 13:07 | -7.91247 | 110.07868 | 1618 ft | 213 kts | 108° |
| 2026-04-23 13:07 | -7.91977 | 110.09193 | 2237 ft | 228 kts | 136° |
| 2026-04-23 13:07 | -7.93465 | 110.09836 | 2821 ft | 245 kts | 175° |
| 2026-04-23 13:08 | -7.95158 | 110.09505 | 3477 ft | 254 kts | 199° |
| 2026-04-23 13:08 | -7.96866 | 110.09018 | 3907 ft | 256 kts | 190° |
| 2026-04-23 13:08 | -7.98655 | 110.08834 | 4566 ft | 260 kts | 180° |
| 2026-04-23 13:08 | -8.00459 | 110.08889 | 5424 ft | 260 kts | 175° |
| 2026-04-23 13:09 | -8.02269 | 110.09084 | 6202 ft | 264 kts | 172° |
| 2026-04-23 13:09 | -8.04113 | 110.09126 | 6959 ft | 267 kts | 189° |
| 2026-04-23 13:09 | -8.05790 | 110.08351 | 7716 ft | 271 kts | 221° |
| 2026-04-23 13:09 | -8.06867 | 110.06763 | 8262 ft | 282 kts | 250° |
| 2026-04-23 13:10 | -8.07497 | 110.04858 | 8974 ft | 290 kts | 254° |
| 2026-04-23 13:10 | -8.08090 | 110.02903 | 9795 ft | 293 kts | 254° |
| 2026-04-23 13:10 | -8.08717 | 110.00896 | 10328 ft | 308 kts | 253° |
| 2026-04-23 13:10 | -8.09398 | 109.98774 | 10678 ft | 328 kts | 253° |
| 2026-04-23 13:11 | -8.10132 | 109.96525 | 11008 ft | 346 kts | 252° |
| 2026-04-23 13:11 | -8.10902 | 109.94186 | 11483 ft | 356 kts | 252° |
| 2026-04-23 13:11 | -8.11692 | 109.91800 | 12138 ft | 360 kts | 252° |
| 2026-04-23 13:11 | -8.12489 | 109.89395 | 12845 ft | 362 kts | 252° |
| 2026-04-23 13:12 | -8.13215 | 109.86952 | 13511 ft | 365 kts | 258° |
| 2026-04-23 13:12 | -8.13445 | 109.84392 | 14053 ft | 370 kts | 270° |
| 2026-04-23 13:12 | -8.13365 | 109.81785 | 14593 ft | 374 kts | 273° |
| 2026-04-23 13:12 | -8.13243 | 109.79152 | 15150 ft | 378 kts | 273° |
| 2026-04-23 13:13 | -8.13123 | 109.76499 | 15734 ft | 380 kts | 273° |
| 2026-04-23 13:13 | -8.13009 | 109.73860 | 16273 ft | 384 kts | 273° |
| 2026-04-23 13:13 | -8.12895 | 109.71149 | 16780 ft | 389 kts | 273° |
| 2026-04-23 13:13 | -8.12782 | 109.68410 | 17289 ft | 393 kts | 273° |
| 2026-04-23 13:14 | -8.12670 | 109.65638 | 17835 ft | 396 kts | 273° |
| 2026-04-23 13:14 | -8.12508 | 109.62851 | 18320 ft | 400 kts | 277° |
| 2026-04-23 13:14 | -8.11972 | 109.60095 | 18799 ft | 401 kts | 288° |
| 2026-04-23 13:14 | -8.10901 | 109.57498 | 19262 ft | 403 kts | 299° |
| 2026-04-23 13:15 | -8.09312 | 109.55156 | 19728 ft | 405 kts | 310° |
| 2026-04-23 13:15 | -8.07473 | 109.52995 | 20239 ft | 407 kts | 312° |
| 2026-04-23 13:15 | -8.05587 | 109.50845 | 20687 ft | 412 kts | 312° |
| 2026-04-23 13:15 | -8.03681 | 109.48668 | 21135 ft | 415 kts | 312° |
| 2026-04-23 13:16 | -8.01769 | 109.46478 | 21687 ft | 417 kts | 311° |
| 2026-04-23 13:16 | -7.99844 | 109.44267 | 22120 ft | 422 kts | 311° |
| 2026-04-23 13:16 | -7.97907 | 109.42039 | 22636 ft | 424 kts | 311° |
| 2026-04-23 13:16 | -7.95956 | 109.39794 | 23122 ft | 426 kts | 312° |
| 2026-04-23 13:17 | -7.93993 | 109.37536 | 23534 ft | 430 kts | 311° |
| 2026-04-23 13:17 | -7.92013 | 109.35256 | 23921 ft | 433 kts | 312° |
| 2026-04-23 13:17 | -7.90019 | 109.32962 | 24306 ft | 436 kts | 312° |
| 2026-04-23 13:17 | -7.88014 | 109.30654 | 24718 ft | 439 kts | 311° |
| 2026-04-23 13:18 | -7.85990 | 109.28325 | 25067 ft | 444 kts | 312° |
| 2026-04-23 13:18 | -7.83946 | 109.25974 | 25535 ft | 447 kts | 312° |
| 2026-04-23 13:18 | -7.81888 | 109.23606 | 25972 ft | 451 kts | 312° |
| 2026-04-23 13:18 | -7.79814 | 109.21221 | 26429 ft | 454 kts | 312° |
| 2026-04-23 13:19 | -7.77724 | 109.18817 | 26918 ft | 457 kts | 312° |
| 2026-04-23 13:19 | -7.75621 | 109.16400 | 27380 ft | 460 kts | 312° |
| 2026-04-23 13:19 | -7.74220 | 109.14790 | 27692 ft | 463 kts | 312° |
| 2026-04-23 13:19 | -7.72090 | 109.12340 | 28146 ft | 466 kts | 312° |
| 2026-04-23 13:20 | -7.69216 | 109.09039 | 28750 ft | 471 kts | 312° |
| 2026-04-23 13:20 | -7.67051 | 109.06551 | 29174 ft | 474 kts | 312° |
| 2026-04-23 13:20 | -7.65633 | 109.04865 | 29457 ft | 477 kts | 309° |
| 2026-04-23 13:20 | -7.63203 | 109.01099 | 30010 ft | 482 kts | 300° |
| 2026-04-23 13:21 | -7.62150 | 108.99127 | 30266 ft | 484 kts | 298° |
| 2026-04-23 13:21 | -7.60615 | 108.96099 | 30662 ft | 486 kts | 297° |
| 2026-04-23 13:21 | -7.59113 | 108.93038 | 31056 ft | 488 kts | 297° |
| 2026-04-23 13:21 | -7.57617 | 108.89965 | 31446 ft | 489 kts | 296° |
| 2026-04-23 13:22 | -7.56110 | 108.86881 | 31813 ft | 491 kts | 297° |
| 2026-04-23 13:22 | -7.54591 | 108.83793 | 32160 ft | 493 kts | 297° |
| 2026-04-23 13:22 | -7.53054 | 108.80688 | 32376 ft | 498 kts | 297° |
| 2026-04-23 13:22 | -7.51495 | 108.77551 | 32673 ft | 501 kts | 297° |
| 2026-04-23 13:23 | -7.49931 | 108.74417 | 33058 ft | 501 kts | 297° |
| 2026-04-23 13:23 | -7.48363 | 108.71277 | 33392 ft | 502 kts | 297° |
| 2026-04-23 13:23 | -7.46787 | 108.68124 | 33686 ft | 504 kts | 297° |
| 2026-04-23 13:23 | -7.45210 | 108.64967 | 34035 ft | 504 kts | 297° |
| 2026-04-23 13:24 | -7.43637 | 108.61819 | 34363 ft | 504 kts | 297° |
| 2026-04-23 13:24 | -7.42061 | 108.58665 | 34665 ft | 504 kts | 297° |
| 2026-04-23 13:24 | -7.40484 | 108.55511 | 34979 ft | 504 kts | 297° |
| 2026-04-23 13:24 | -7.38910 | 108.52361 | 35318 ft | 503 kts | 297° |
| 2026-04-23 13:25 | -7.37336 | 108.49213 | 35620 ft | 503 kts | 297° |
| 2026-04-23 13:25 | -7.35765 | 108.46068 | 35948 ft | 503 kts | 297° |
| 2026-04-23 13:25 | -7.34192 | 108.42921 | 36223 ft | 503 kts | 297° |
| 2026-04-23 13:25 | -7.32614 | 108.39766 | 36461 ft | 505 kts | 298° |
| 2026-04-23 13:26 | -7.31034 | 108.36609 | 36770 ft | 504 kts | 297° |
| 2026-04-23 13:26 | -7.29460 | 108.33463 | 37087 ft | 504 kts | 297° |
| 2026-04-23 13:26 | -7.27887 | 108.30322 | 37418 ft | 502 kts | 297° |
| 2026-04-23 13:26 | -7.26338 | 108.27228 | 37799 ft | 500 kts | 297° |
| 2026-04-23 13:27 | -7.24753 | 108.24060 | 38079 ft | 500 kts | 297° |
| 2026-04-23 13:27 | -7.23209 | 108.20976 | 38338 ft | 500 kts | 297° |
| 2026-04-23 13:27 | -7.21644 | 108.17851 | 38581 ft | 500 kts | 297° |
| 2026-04-23 13:27 | -7.20078 | 108.14726 | 38763 ft | 501 kts | 297° |
| 2026-04-23 13:28 | -7.18506 | 108.11588 | 38922 ft | 502 kts | 297° |
| 2026-04-23 13:28 | -7.16934 | 108.08453 | 39197 ft | 500 kts | 297° |
| 2026-04-23 13:28 | -7.15370 | 108.05332 | 39451 ft | 499 kts | 297° |
| 2026-04-23 13:28 | -7.13808 | 108.02215 | 39681 ft | 498 kts | 297° |
| 2026-04-23 13:29 | -7.12247 | 107.99104 | 39857 ft | 498 kts | 297° |
| 2026-04-23 13:29 | -7.09137 | 107.92903 | 39864 ft | 495 kts | 297° |
| 2026-04-23 13:30 | -7.06012 | 107.86676 | 39866 ft | 502 kts | 298° |
| 2026-04-23 13:30 | -7.02845 | 107.80371 | 39871 ft | 508 kts | 297° |
| 2026-04-23 13:31 | -6.99650 | 107.74009 | 39869 ft | 510 kts | 298° |
| 2026-04-23 13:31 | -6.96449 | 107.67637 | 39872 ft | 511 kts | 298° |
| 2026-04-23 13:32 | -6.93244 | 107.61262 | 39865 ft | 510 kts | 298° |
| 2026-04-23 13:32 | -6.90044 | 107.54897 | 39863 ft | 510 kts | 297° |
| 2026-04-23 13:33 | -6.86442 | 107.48778 | 39866 ft | 509 kts | 305° |
| 2026-04-23 13:33 | -6.82401 | 107.42935 | 39855 ft | 508 kts | 306° |
| 2026-04-23 13:34 | -6.78294 | 107.37142 | 39841 ft | 507 kts | 307° |
| 2026-04-23 13:34 | -6.74201 | 107.31372 | 39835 ft | 506 kts | 307° |
| 2026-04-23 13:35 | -6.70148 | 107.25638 | 39836 ft | 506 kts | 307° |
| 2026-04-23 13:35 | -6.66077 | 107.19869 | 39815 ft | 506 kts | 306° |
| 2026-04-23 13:36 | -6.62008 | 107.14104 | 39816 ft | 505 kts | 307° |
| 2026-04-23 13:36 | -6.57936 | 107.08341 | 39819 ft | 506 kts | 307° |
| 2026-04-23 13:37 | -6.53863 | 107.02574 | 39807 ft | 505 kts | 306° |
| 2026-04-23 13:37 | -6.49797 | 106.96820 | 39809 ft | 504 kts | 306° |
| 2026-04-23 13:38 | -6.45739 | 106.91081 | 39811 ft | 504 kts | 306° |
| 2026-04-23 13:38 | -6.41727 | 106.85409 | 39829 ft | 504 kts | 305° |
| 2026-04-23 13:39 | -6.37668 | 106.79670 | 39845 ft | 504 kts | 306° |
| 2026-04-23 13:39 | -6.33607 | 106.73931 | 39853 ft | 503 kts | 307° |
| 2026-04-23 13:40 | -6.29547 | 106.68196 | 39855 ft | 503 kts | 306° |
| 2026-04-23 13:40 | -6.25487 | 106.62462 | 39853 ft | 503 kts | 306° |
| 2026-04-23 13:41 | -6.21426 | 106.56730 | 39853 ft | 503 kts | 306° |
| 2026-04-23 13:41 | -6.16820 | 106.51476 | 39854 ft | 502 kts | 319° |
| 2026-04-23 13:42 | -6.11518 | 106.46907 | 39849 ft | 502 kts | 321° |
| 2026-04-23 13:42 | -6.06106 | 106.42460 | 39847 ft | 503 kts | 322° |
| 2026-04-23 13:43 | -6.00678 | 106.38026 | 39841 ft | 503 kts | 323° |
| 2026-04-23 13:43 | -5.95070 | 106.34078 | 39844 ft | 502 kts | 327° |
| 2026-04-23 13:43 | -5.92162 | 106.32118 | 39728 ft | 504 kts | 327° |
| 2026-04-23 13:44 | -5.89244 | 106.30169 | 39763 ft | 502 kts | 328° |
| 2026-04-23 13:44 | -5.83441 | 106.26309 | 39800 ft | 499 kts | 328° |
| 2026-04-23 13:45 | -5.77650 | 106.22453 | 39806 ft | 500 kts | 328° |
| 2026-04-23 13:45 | -5.71858 | 106.18591 | 39817 ft | 500 kts | 328° |
| 2026-04-23 13:46 | -5.66066 | 106.14726 | 39813 ft | 500 kts | 328° |
| 2026-04-23 13:46 | -5.60271 | 106.10860 | 39815 ft | 500 kts | 328° |
| 2026-04-23 13:47 | -5.54481 | 106.06999 | 39811 ft | 500 kts | 328° |
| 2026-04-23 13:47 | -5.48685 | 106.03136 | 39821 ft | 500 kts | 327° |
| 2026-04-23 13:48 | -5.42905 | 105.99284 | 39824 ft | 504 kts | 327° |
| 2026-04-23 13:48 | -5.37052 | 105.95384 | 39821 ft | 505 kts | 327° |
| 2026-04-23 13:49 | -5.31198 | 105.91484 | 39815 ft | 505 kts | 327° |
| 2026-04-23 13:49 | -5.25333 | 105.87577 | 39811 ft | 505 kts | 327° |
| 2026-04-23 13:50 | -5.19476 | 105.83677 | 39814 ft | 505 kts | 327° |
| 2026-04-23 13:50 | -5.13728 | 105.79744 | 39752 ft | 506 kts | 326° |
| 2026-04-23 13:51 | -5.08024 | 105.75632 | 39855 ft | 503 kts | 325° |
| 2026-04-23 13:51 | -5.02348 | 105.71541 | 39862 ft | 502 kts | 325° |
| 2026-04-23 13:52 | -4.96652 | 105.67473 | 39860 ft | 502 kts | 326° |
| 2026-04-23 13:52 | -4.90953 | 105.63422 | 39859 ft | 502 kts | 325° |
| 2026-04-23 13:53 | -4.85241 | 105.59366 | 39859 ft | 504 kts | 325° |
| 2026-04-23 13:53 | -4.79515 | 105.55297 | 39855 ft | 504 kts | 325° |
| 2026-04-23 13:54 | -4.73788 | 105.51228 | 39856 ft | 505 kts | 325° |
| 2026-04-23 13:54 | -4.68059 | 105.47158 | 39860 ft | 505 kts | 325° |
| 2026-04-23 13:55 | -4.62318 | 105.43081 | 39860 ft | 505 kts | 325° |
| 2026-04-23 13:55 | -4.56582 | 105.39009 | 39860 ft | 505 kts | 325° |
| 2026-04-23 13:56 | -4.50848 | 105.34939 | 39862 ft | 505 kts | 325° |
| 2026-04-23 13:56 | -4.45111 | 105.30867 | 39861 ft | 505 kts | 325° |
| 2026-04-23 13:57 | -4.39373 | 105.26796 | 39861 ft | 506 kts | 325° |
| 2026-04-23 13:57 | -4.36566 | 105.24805 | 41612 ft | 507 kts | 324° |
| 2026-04-23 13:57 | -4.33676 | 105.22755 | 39701 ft | 509 kts | 325° |
| 2026-04-23 13:57 | -4.30794 | 105.20710 | 39813 ft | 508 kts | 325° |
| 2026-04-23 13:58 | -4.27910 | 105.18665 | 39823 ft | 507 kts | 325° |
| 2026-04-23 13:58 | -4.22156 | 105.14583 | 39834 ft | 507 kts | 325° |
| 2026-04-23 13:59 | -4.16437 | 105.10528 | 39830 ft | 507 kts | 325° |
| 2026-04-23 13:59 | -4.10714 | 105.06412 | 39832 ft | 507 kts | 321° |
| 2026-04-23 14:00 | -4.06277 | 105.02504 | 39828 ft | 507 kts | 318° |
| 2026-04-23 14:00 | -4.00264 | 104.96908 | 39836 ft | 508 kts | 317° |
| 2026-04-23 14:01 | -3.95118 | 104.92066 | 39826 ft | 508 kts | 317° |
| 2026-04-23 14:01 | -3.89971 | 104.87234 | 39828 ft | 507 kts | 317° |
| 2026-04-23 14:02 | -3.84817 | 104.82410 | 39832 ft | 507 kts | 317° |
| 2026-04-23 14:02 | -3.79668 | 104.77595 | 39828 ft | 507 kts | 317° |
| 2026-04-23 14:03 | -3.74516 | 104.72777 | 39828 ft | 507 kts | 317° |
| 2026-04-23 14:03 | -3.69469 | 104.68058 | 39826 ft | 507 kts | 317° |
| 2026-04-23 14:04 | -3.64308 | 104.63233 | 39824 ft | 508 kts | 317° |
| 2026-04-23 14:04 | -3.59144 | 104.58406 | 39834 ft | 507 kts | 317° |
| 2026-04-23 14:05 | -3.53989 | 104.53589 | 39831 ft | 507 kts | 317° |
| 2026-04-23 14:05 | -3.48832 | 104.48770 | 39834 ft | 507 kts | 317° |
| 2026-04-23 14:06 | -3.43676 | 104.43953 | 39834 ft | 507 kts | 317° |
| 2026-04-23 14:06 | -3.39388 | 104.39948 | 39834 ft | 507 kts | 317° |
| 2026-04-23 14:07 | -3.34233 | 104.35133 | 39834 ft | 507 kts | 317° |
| 2026-04-23 14:07 | -3.26498 | 104.27910 | 39834 ft | 507 kts | 317° |
| 2026-04-23 14:08 | -3.21339 | 104.23093 | 39834 ft | 507 kts | 317° |
| 2026-04-23 14:08 | -3.16181 | 104.18278 | 39831 ft | 507 kts | 317° |
| 2026-04-23 14:09 | -3.11027 | 104.13468 | 39831 ft | 506 kts | 317° |
| 2026-04-23 14:09 | -3.05876 | 104.08661 | 39831 ft | 506 kts | 317° |
| 2026-04-23 14:10 | -3.00721 | 104.03850 | 39830 ft | 507 kts | 317° |
| 2026-04-23 14:10 | -2.95570 | 103.99044 | 39835 ft | 507 kts | 317° |
| 2026-04-23 14:11 | -2.90413 | 103.94233 | 39834 ft | 507 kts | 317° |
| 2026-04-23 14:11 | -2.85257 | 103.89424 | 39833 ft | 507 kts | 317° |
| 2026-04-23 14:12 | -2.80100 | 103.84615 | 39832 ft | 506 kts | 317° |
| 2026-04-23 14:12 | -2.74954 | 103.79817 | 39837 ft | 505 kts | 317° |
| 2026-04-23 14:13 | -2.69816 | 103.75025 | 39836 ft | 505 kts | 317° |
| 2026-04-23 14:13 | -2.64676 | 103.70234 | 39834 ft | 505 kts | 317° |
| 2026-04-23 14:14 | -2.59538 | 103.65444 | 39837 ft | 505 kts | 317° |
| 2026-04-23 14:14 | -2.54392 | 103.60647 | 39834 ft | 506 kts | 317° |
| 2026-04-23 14:15 | -2.49233 | 103.55839 | 39833 ft | 507 kts | 317° |
| 2026-04-23 14:15 | -2.44081 | 103.51038 | 39836 ft | 507 kts | 317° |
| 2026-04-23 14:16 | -2.38930 | 103.46239 | 39835 ft | 505 kts | 317° |
| 2026-04-23 14:16 | -2.33797 | 103.41457 | 39838 ft | 504 kts | 317° |
| 2026-04-23 14:17 | -2.28679 | 103.36682 | 39837 ft | 503 kts | 317° |
| 2026-04-23 14:17 | -2.23561 | 103.31897 | 39835 ft | 503 kts | 317° |
| 2026-04-23 14:18 | -2.18453 | 103.27125 | 39837 ft | 502 kts | 317° |
| 2026-04-23 14:18 | -2.13381 | 103.22387 | 39836 ft | 502 kts | 317° |
| 2026-04-23 14:19 | -2.08282 | 103.17625 | 39837 ft | 502 kts | 317° |
| 2026-04-23 14:19 | -2.03183 | 103.12864 | 39835 ft | 502 kts | 317° |
| 2026-04-23 14:20 | -1.98083 | 103.08102 | 39837 ft | 501 kts | 317° |
| 2026-04-23 14:20 | -1.93047 | 103.03399 | 39835 ft | 490 kts | 317° |
| 2026-04-23 14:21 | -1.88085 | 102.98766 | 39836 ft | 487 kts | 317° |
| 2026-04-23 14:21 | -1.83132 | 102.94142 | 39834 ft | 488 kts | 317° |
| 2026-04-23 14:22 | -1.78169 | 102.89510 | 39835 ft | 489 kts | 317° |
| 2026-04-23 14:22 | -1.73193 | 102.84866 | 39836 ft | 489 kts | 317° |
| 2026-04-23 14:23 | -1.68223 | 102.80228 | 39836 ft | 489 kts | 317° |
| 2026-04-23 14:23 | -1.63253 | 102.75590 | 39841 ft | 489 kts | 317° |
| 2026-04-23 14:24 | -1.58182 | 102.71088 | 39838 ft | 487 kts | 324° |
| 2026-04-23 14:24 | -1.52187 | 102.68014 | 39838 ft | 486 kts | 342° |
| 2026-04-23 14:25 | -1.45711 | 102.66075 | 39835 ft | 486 kts | 344° |
| 2026-04-23 14:25 | -1.39226 | 102.64181 | 39842 ft | 485 kts | 344° |
| 2026-04-23 14:26 | -1.32752 | 102.62279 | 39838 ft | 485 kts | 344° |
| 2026-04-23 14:26 | -1.26277 | 102.60373 | 39832 ft | 485 kts | 344° |
| 2026-04-23 14:27 | -1.23108 | 102.59440 | 41561 ft | 486 kts | 343° |
| 2026-04-23 14:27 | -1.19854 | 102.58481 | 39673 ft | 490 kts | 344° |
| 2026-04-23 14:27 | -1.16578 | 102.57516 | 39792 ft | 490 kts | 344° |
| 2026-04-23 14:27 | -1.13318 | 102.56555 | 39817 ft | 487 kts | 344° |
| 2026-04-23 14:28 | -1.10077 | 102.55600 | 39592 ft | 485 kts | 343° |
| 2026-04-23 14:28 | -1.06834 | 102.54644 | 39353 ft | 486 kts | 343° |
| 2026-04-23 14:28 | -1.03591 | 102.53689 | 39128 ft | 487 kts | 343° |
| 2026-04-23 14:28 | -1.00337 | 102.52730 | 38896 ft | 488 kts | 343° |
| 2026-04-23 14:29 | -0.97080 | 102.51771 | 38677 ft | 488 kts | 343° |
| 2026-04-23 14:29 | -0.93820 | 102.50810 | 38444 ft | 489 kts | 343° |
| 2026-04-23 14:29 | -0.90555 | 102.49848 | 38184 ft | 490 kts | 344° |
| 2026-04-23 14:29 | -0.87281 | 102.48883 | 37910 ft | 491 kts | 344° |
| 2026-04-23 14:30 | -0.84004 | 102.47918 | 37645 ft | 492 kts | 344° |
| 2026-04-23 14:30 | -0.80719 | 102.46950 | 37386 ft | 493 kts | 344° |
| 2026-04-23 14:30 | -0.77427 | 102.45980 | 37133 ft | 494 kts | 344° |
| 2026-04-23 14:30 | -0.74124 | 102.45007 | 36877 ft | 495 kts | 344° |
| 2026-04-23 14:31 | -0.70819 | 102.44034 | 36625 ft | 496 kts | 344° |
| 2026-04-23 14:31 | -0.67506 | 102.43058 | 36382 ft | 497 kts | 344° |
| 2026-04-23 14:31 | -0.64182 | 102.42079 | 36128 ft | 499 kts | 344° |
| 2026-04-23 14:31 | -0.60861 | 102.41101 | 35717 ft | 496 kts | 344° |
| 2026-04-23 14:32 | -0.57606 | 102.39953 | 34974 ft | 497 kts | 336° |
| 2026-04-23 14:32 | -0.54612 | 102.38202 | 34116 ft | 502 kts | 323° |
| 2026-04-23 14:32 | -0.52012 | 102.35931 | 33181 ft | 506 kts | 316° |
| 2026-04-23 14:32 | -0.49480 | 102.33472 | 32249 ft | 509 kts | 316° |
| 2026-04-23 14:33 | -0.46952 | 102.30994 | 31330 ft | 511 kts | 315° |
| 2026-04-23 14:33 | -0.44401 | 102.28500 | 30462 ft | 513 kts | 315° |
| 2026-04-23 14:33 | -0.41862 | 102.26025 | 29836 ft | 508 kts | 315° |
| 2026-04-23 14:33 | -0.39338 | 102.23571 | 29127 ft | 504 kts | 315° |
| 2026-04-23 14:34 | -0.36835 | 102.21138 | 28472 ft | 499 kts | 315° |
| 2026-04-23 14:34 | -0.34361 | 102.18735 | 27830 ft | 494 kts | 315° |
| 2026-04-23 14:34 | -0.31903 | 102.16349 | 27202 ft | 490 kts | 315° |
| 2026-04-23 14:34 | -0.29472 | 102.13990 | 26562 ft | 486 kts | 315° |
| 2026-04-23 14:35 | -0.27057 | 102.11654 | 25938 ft | 481 kts | 316° |
| 2026-04-23 14:35 | -0.24659 | 102.09335 | 25314 ft | 477 kts | 316° |
| 2026-04-23 14:35 | -0.22288 | 102.07038 | 24695 ft | 473 kts | 316° |
| 2026-04-23 14:35 | -0.19930 | 102.04755 | 24077 ft | 470 kts | 316° |
| 2026-04-23 14:36 | -0.17592 | 102.02492 | 23464 ft | 466 kts | 316° |
| 2026-04-23 14:36 | -0.15271 | 102.00245 | 22768 ft | 462 kts | 316° |
| 2026-04-23 14:36 | -0.12972 | 101.98021 | 22122 ft | 457 kts | 316° |
| 2026-04-23 14:36 | -0.10702 | 101.95824 | 21506 ft | 452 kts | 316° |
| 2026-04-23 14:37 | -0.08457 | 101.93656 | 20882 ft | 447 kts | 316° |
| 2026-04-23 14:37 | -0.06239 | 101.91508 | 20267 ft | 442 kts | 315° |
| 2026-04-23 14:37 | -0.04046 | 101.89380 | 19637 ft | 438 kts | 315° |
| 2026-04-23 14:37 | -0.01875 | 101.87274 | 19022 ft | 434 kts | 315° |
| 2026-04-23 14:38 | 0.00285 | 101.85178 | 18407 ft | 431 kts | 315° |
| 2026-04-23 14:38 | 0.02427 | 101.83101 | 17729 ft | 427 kts | 316° |
| 2026-04-23 14:38 | 0.04556 | 101.81038 | 17080 ft | 423 kts | 316° |
| 2026-04-23 14:38 | 0.06655 | 101.79004 | 16461 ft | 418 kts | 316° |
| 2026-04-23 14:39 | 0.08761 | 101.77037 | 15984 ft | 412 kts | 320° |
| 2026-04-23 14:39 | 0.11079 | 101.75365 | 15427 ft | 411 kts | 326° |
| 2026-04-23 14:39 | 0.13473 | 101.73824 | 14816 ft | 407 kts | 327° |
| 2026-04-23 14:39 | 0.15854 | 101.72313 | 14299 ft | 403 kts | 327° |
| 2026-04-23 14:40 | 0.18205 | 101.70819 | 13794 ft | 399 kts | 327° |
| 2026-04-23 14:40 | 0.20539 | 101.69331 | 13267 ft | 397 kts | 327° |
| 2026-04-23 14:40 | 0.22857 | 101.67850 | 12749 ft | 394 kts | 327° |
| 2026-04-23 14:40 | 0.25155 | 101.66380 | 12257 ft | 391 kts | 327° |
| 2026-04-23 14:41 | 0.27432 | 101.64922 | 11780 ft | 387 kts | 327° |
| 2026-04-23 14:41 | 0.29693 | 101.63479 | 11405 ft | 385 kts | 327° |
| 2026-04-23 14:41 | 0.31941 | 101.62045 | 11009 ft | 379 kts | 327° |
| 2026-04-23 14:41 | 0.34121 | 101.60653 | 10762 ft | 364 kts | 327° |
| 2026-04-23 14:42 | 0.36215 | 101.59316 | 10527 ft | 350 kts | 327° |
| 2026-04-23 14:42 | 0.38290 | 101.58139 | 10265 ft | 334 kts | 337° |
| 2026-04-23 14:42 | 0.40488 | 101.57701 | 9868 ft | 314 kts | 356° |
| 2026-04-23 14:42 | 0.42637 | 101.57632 | 9198 ft | 306 kts | 359° |
| 2026-04-23 14:43 | 0.44744 | 101.57608 | 8507 ft | 299 kts | 359° |
| 2026-04-23 14:43 | 0.46793 | 101.57581 | 8032 ft | 292 kts | 359° |
| 2026-04-23 14:43 | 0.48821 | 101.57547 | 7657 ft | 291 kts | 359° |
| 2026-04-23 14:43 | 0.50843 | 101.57510 | 7292 ft | 290 kts | 358° |
| 2026-04-23 14:44 | 0.52856 | 101.57470 | 6930 ft | 288 kts | 358° |
| 2026-04-23 14:44 | 0.54856 | 101.57425 | 6560 ft | 286 kts | 357° |
| 2026-04-23 14:44 | 0.56832 | 101.57272 | 6187 ft | 284 kts | 353° |
| 2026-04-23 14:44 | 0.58803 | 101.57052 | 5868 ft | 285 kts | 353° |
| 2026-04-23 14:45 | 0.60766 | 101.56824 | 5479 ft | 282 kts | 353° |
| 2026-04-23 14:45 | 0.62703 | 101.56600 | 5116 ft | 279 kts | 353° |
| 2026-04-23 14:45 | 0.64612 | 101.56297 | 4767 ft | 277 kts | 345° |
| 2026-04-23 14:45 | 0.66300 | 101.55409 | 4396 ft | 276 kts | 318° |
| 2026-04-23 14:46 | 0.67364 | 101.53871 | 4050 ft | 274 kts | 290° |
| 2026-04-23 14:46 | 0.67768 | 101.51994 | 3706 ft | 273 kts | 277° |
| 2026-04-23 14:46 | 0.67983 | 101.50108 | 3363 ft | 273 kts | 276° |
| 2026-04-23 14:46 | 0.68054 | 101.48248 | 3035 ft | 271 kts | 263° |
| 2026-04-23 14:47 | 0.67382 | 101.46535 | 2925 ft | 256 kts | 230° |
| 2026-04-23 14:47 | 0.66060 | 101.45498 | 2793 ft | 234 kts | 205° |
| 2026-04-23 14:47 | 0.64620 | 101.44962 | 2680 ft | 209 kts | 189° |
| 2026-04-23 14:47 | 0.63257 | 101.44915 | 2604 ft | 184 kts | 176° |
| 2026-04-23 14:48 | 0.62053 | 101.44932 | 2522 ft | 164 kts | 181° |
| 2026-04-23 14:48 | 0.60938 | 101.44884 | 2451 ft | 159 kts | 180° |
| 2026-04-23 14:48 | 0.59831 | 101.44848 | 2374 ft | 159 kts | 180° |
| 2026-04-23 14:48 | 0.58729 | 101.44814 | 2318 ft | 159 kts | 180° |
| 2026-04-23 14:49 | 0.57636 | 101.44781 | 2134 ft | 155 kts | 180° |
| 2026-04-23 14:49 | 0.56586 | 101.44750 | 1927 ft | 146 kts | 180° |
| 2026-04-23 14:49 | 0.55599 | 101.44722 | 1740 ft | 138 kts | 179° |
| 2026-04-23 14:49 | 0.54639 | 101.44695 | 1583 ft | 138 kts | 180° |
| 2026-04-23 14:50 | 0.53678 | 101.44668 | 1396 ft | 138 kts | 180° |
| 2026-04-23 14:50 | 0.52719 | 101.44640 | 1227 ft | 138 kts | 180° |
| 2026-04-23 14:50 | 0.51766 | 101.44613 | 1044 ft | 137 kts | 180° |
| 2026-04-23 14:50 | 0.50815 | 101.44586 | 885 ft | 137 kts | 180° |
| 2026-04-23 14:51 | 0.49864 | 101.44558 | 696 ft | 136 kts | 180° |
| 2026-04-23 14:51 | 0.49222 | 101.44540 | 578 ft | 137 kts | 180° |
| 2026-04-23 14:51 | 0.48291 | 101.44517 | 418 ft | 136 kts | 179° |
| 2026-04-23 14:51 | 0.47334 | 101.44497 | 238 ft | 140 kts | 180° |
| 2026-04-23 14:52 | 0.46378 | 101.44457 | 149 ft | 130 kts | 178° |
| 2026-04-23 14:52 | 0.45556 | 101.44441 | 374 ft | 118 kts | 177° |
| 2026-04-23 14:52 | 0.44593 | 101.44476 | 930 ft | 158 kts | 176° |
| 2026-04-23 14:52 | 0.43420 | 101.44431 | 1722 ft | 173 kts | 183° |
| 2026-04-23 14:53 | 0.42320 | 101.43866 | 1995 ft | 195 kts | 230° |
| 2026-04-23 14:53 | 0.41841 | 101.42535 | 2197 ft | 219 kts | 268° |
| 2026-04-23 14:53 | 0.42329 | 101.41040 | 2385 ft | 242 kts | 308° |
| 2026-04-23 14:53 | 0.43751 | 101.40084 | 2695 ft | 259 kts | 345° |
| 2026-04-23 14:54 | 0.45561 | 101.40098 | 2877 ft | 265 kts | 18° |
| 2026-04-23 14:54 | 0.47214 | 101.40905 | 2915 ft | 265 kts | 29° |
| 2026-04-23 14:54 | 0.48881 | 101.41698 | 2907 ft | 266 kts | 22° |
| 2026-04-23 14:54 | 0.50636 | 101.42299 | 2906 ft | 267 kts | 17° |
| 2026-04-23 14:55 | 0.52431 | 101.42763 | 2912 ft | 267 kts | 13° |
| 2026-04-23 14:55 | 0.54248 | 101.43147 | 2916 ft | 267 kts | 12° |
| 2026-04-23 14:55 | 0.56071 | 101.43484 | 2918 ft | 267 kts | 11° |
| 2026-04-23 14:55 | 0.57907 | 101.43798 | 2906 ft | 267 kts | 10° |
| 2026-04-23 14:56 | 0.59738 | 101.44098 | 2915 ft | 267 kts | 10° |
| 2026-04-23 14:56 | 0.61575 | 101.44391 | 2917 ft | 268 kts | 9° |
| 2026-04-23 14:56 | 0.63414 | 101.44679 | 2909 ft | 268 kts | 10° |
| 2026-04-23 14:56 | 0.65255 | 101.44965 | 2920 ft | 267 kts | 9° |
| 2026-04-23 14:57 | 0.67089 | 101.45249 | 2917 ft | 267 kts | 9° |
| 2026-04-23 14:57 | 0.68927 | 101.45533 | 2913 ft | 267 kts | 9° |
| 2026-04-23 14:57 | 0.70766 | 101.45408 | 2926 ft | 270 kts | 340° |
| 2026-04-23 14:57 | 0.72254 | 101.44306 | 2933 ft | 269 kts | 307° |
| 2026-04-23 14:58 | 0.73315 | 101.42767 | 2926 ft | 270 kts | 305° |
| 2026-04-23 14:58 | 0.74466 | 101.41284 | 2908 ft | 270 kts | 311° |
| 2026-04-23 14:58 | 0.75754 | 101.39911 | 2917 ft | 272 kts | 316° |
| 2026-04-23 14:58 | 0.77122 | 101.38609 | 2918 ft | 272 kts | 317° |
| 2026-04-23 14:59 | 0.78664 | 101.37536 | 2929 ft | 271 kts | 338° |
| 2026-04-23 14:59 | 0.80504 | 101.37289 | 2932 ft | 268 kts | 7° |
| 2026-04-23 14:59 | 0.82199 | 101.37980 | 2930 ft | 265 kts | 38° |
| 2026-04-23 14:59 | 0.83357 | 101.39378 | 2927 ft | 264 kts | 65° |
| 2026-04-23 15:00 | 0.83755 | 101.41149 | 2930 ft | 263 kts | 91° |
| 2026-04-23 15:00 | 0.83340 | 101.42914 | 2930 ft | 263 kts | 116° |
| 2026-04-23 15:00 | 0.82174 | 101.44303 | 2932 ft | 264 kts | 143° |
| 2026-04-23 15:00 | 0.80506 | 101.45052 | 2932 ft | 265 kts | 165° |
| 2026-04-23 15:01 | 0.78685 | 101.45329 | 2931 ft | 266 kts | 175° |
| 2026-04-23 15:01 | 0.76833 | 101.45348 | 2937 ft | 267 kts | 180° |
| 2026-04-23 15:01 | 0.74975 | 101.45285 | 2923 ft | 267 kts | 181° |
| 2026-04-23 15:01 | 0.73116 | 101.45222 | 2921 ft | 268 kts | 181° |
| 2026-04-23 15:02 | 0.71258 | 101.45164 | 2926 ft | 268 kts | 181° |
| 2026-04-23 15:02 | 0.69395 | 101.45109 | 2919 ft | 268 kts | 181° |
| 2026-04-23 15:02 | 0.67533 | 101.45057 | 2918 ft | 268 kts | 181° |
| 2026-04-23 15:02 | 0.65668 | 101.45007 | 2914 ft | 268 kts | 180° |
| 2026-04-23 15:03 | 0.63802 | 101.44957 | 2914 ft | 268 kts | 180° |
| 2026-04-23 15:03 | 0.61962 | 101.44906 | 2896 ft | 268 kts | 180° |
| 2026-04-23 15:03 | 0.60071 | 101.44852 | 2639 ft | 267 kts | 181° |
| 2026-04-23 15:03 | 0.58289 | 101.44799 | 2269 ft | 251 kts | 180° |
| 2026-04-23 15:04 | 0.56608 | 101.44751 | 1952 ft | 232 kts | 180° |
| 2026-04-23 15:04 | 0.55051 | 101.44706 | 1661 ft | 216 kts | 180° |
| 2026-04-23 15:04 | 0.53608 | 101.44665 | 1403 ft | 199 kts | 180° |
| 2026-04-23 15:04 | 0.52277 | 101.44628 | 1162 ft | 186 kts | 180° |
| 2026-04-23 15:05 | 0.51026 | 101.44591 | 923 ft | 172 kts | 180° |
| 2026-04-23 15:05 | 0.49872 | 101.44558 | 704 ft | 160 kts | 180° |
| 2026-04-23 15:05 | 0.48797 | 101.44528 | 475 ft | 149 kts | 181° |
| 2026-04-23 15:05 | 0.47791 | 101.44500 | 275 ft | 139 kts | 182° |
| 2026-04-23 15:06 | 0.46848 | 101.44477 | 137 ft | 131 kts | 181° |
| 2026-04-23 15:06 | 0.46154 | 101.44454 | 133 ft | 59 kts | 182° |
| 2026-04-23 15:06 | 0.45835 | 101.44444 | 124 ft | 43 kts | 181° |
| 2026-04-23 15:06 | 0.45534 | 101.44437 | 125 ft | 43 kts | 182° |
| 2026-04-23 15:07 | 0.45293 | 101.44433 | 126 ft | 20 kts | 176° |
| 2026-04-23 15:07 | 0.45188 | 101.44449 | 135 ft | 5 kts | 206° |
| 2026-04-23 15:07 | 0.45189 | 101.44433 | 135 ft | 3 kts | 290° |
| 2026-04-23 15:07 | 0.45223 | 101.44429 | 131 ft | 16 kts | 356° |
| 2026-04-23 15:08 | 0.45357 | 101.44431 | 127 ft | 21 kts | 2° |
| 2026-04-23 15:08 | 0.45512 | 101.44435 | 129 ft | 24 kts | 1° |
| 2026-04-23 15:08 | 0.45686 | 101.44440 | 124 ft | 26 kts | 1° |
| 2026-04-23 15:09 | 0.46081 | 101.44452 | 125 ft | 30 kts | 1° |
| 2026-04-23 15:09 | 0.46285 | 101.44458 | 135 ft | 20 kts | 1° |
| 2026-04-23 15:09 | 0.46359 | 101.44472 | 132 ft | 5 kts | 32° |
| 2026-04-23 15:09 | 0.46376 | 101.44501 | 135 ft | 6 kts | 71° |
| 2026-04-23 15:10 | 0.46379 | 101.44534 | 135 ft | 9 kts | 87° |
| 2026-04-23 15:10 | 0.46397 | 101.44584 | 131 ft | 4 kts | 23° |
| 2026-04-23 15:10 | 0.46418 | 101.44588 | 134 ft | 0 kts | 11° |
| 2026-04-23 15:10 | 0.46429 | 101.44592 | 131 ft | 9 kts | 24° |
| 2026-04-23 15:11 | 0.46442 | 101.44623 | 130 ft | 5 kts | 81° |
| 2026-04-23 15:11 | 0.46442 | 101.44663 | 134 ft | 5 kts | 92° |
| 2026-04-23 15:11 | 0.46441 | 101.44667 | 134 ft | 0 kts | 92° |
| 2026-04-23 15:11 | 0.46441 | 101.44675 | 134 ft | 3 kts | 92° |
| 2026-04-23 15:12 | 0.46441 | 101.44679 | 134 ft | 0 kts | 92° |